Time;durP1;ratioP1;P1;durP2;ratioP2;P2;SDS_P1;SDS_P2;PMS_P1;PMS_P2;Temp;Humidity;BMP_temperature;BMP_pressure;BME280_temperature;BME280_humidity;BME280_pressure;Samples;Min_cycle;Max_cycle;Signal;HPM_P1;HPM_P2
2021/04/23 00:01:21;;;;;;;6.35;2.83;;;5.20;54.90;;;;;;5055263;28;20033;-63
2021/04/23 00:03:52;;;;;;;4.35;2.92;;;5.10;55.50;;;;;;5060540;28;20028;-63
2021/04/23 00:06:24;;;;;;;5.82;3.08;;;5.10;55.40;;;;;;5062784;28;20036;-63
2021/04/23 00:08:58;;;;;;;6.40;2.95;;;5.00;55.40;;;;;;5061231;28;20102;-62
2021/04/23 00:11:37;;;;;;;6.03;3.03;;;5.00;55.30;;;;;;5049500;28;20033;-63
2021/04/23 00:14:08;;;;;;;6.35;3.03;;;4.90;55.20;;;;;;5061691;28;20070;-63
2021/04/23 00:16:37;;;;;;;6.60;2.85;;;4.90;55.40;;;;;;5062220;28;20037;-63
2021/04/23 00:19:11;;;;;;;5.78;3.15;;;4.90;55.50;;;;;;5057071;28;20037;-63
2021/04/23 00:21:44;;;;;;;4.85;2.65;;;4.80;55.70;;;;;;5056719;28;20060;-63
2021/04/23 00:24:17;;;;;;;5.90;2.75;;;4.80;55.60;;;;;;5059630;28;20033;-63
2021/04/23 00:26:48;;;;;;;5.28;2.53;;;4.80;55.60;;;;;;5062788;28;20048;-63
2021/04/23 00:29:20;;;;;;;5.32;2.45;;;4.70;55.50;;;;;;5064551;28;20037;-63
2021/04/23 00:34:41;;;;;;;5.40;2.92;;;4.70;55.70;;;;;;5065112;28;20062;-63
2021/04/23 00:37:07;;;;;;;5.95;3.03;;;4.60;55.50;;;;;;5074825;28;20032;-63
2021/04/23 00:39:34;;;;;;;7.85;2.83;;;4.60;56.40;;;;;;5058745;28;20513;-62
2021/04/23 00:42:00;;;;;;;4.82;2.92;;;4.50;55.80;;;;;;5053019;28;20051;-62
2021/04/23 00:44:30;;;;;;;4.35;2.60;;;4.50;55.90;;;;;;5057755;28;20564;-62
2021/04/23 00:47:01;;;;;;;6.68;2.60;;;4.50;56.10;;;;;;5057333;28;20892;-63
2021/04/23 00:49:29;;;;;;;5.38;2.45;;;4.30;56.00;;;;;;5057839;28;20056;-63
2021/04/23 00:52:02;;;;;;;5.10;2.70;;;4.50;56.20;;;;;;5061156;28;20036;-62
2021/04/23 00:54:33;;;;;;;4.97;2.63;;;4.40;56.60;;;;;;5059250;28;20150;-63
2021/04/23 00:57:03;;;;;;;5.15;2.50;;;4.30;56.40;;;;;;5060703;28;20078;-63
2021/04/23 00:59:31;;;;;;;6.97;2.83;;;4.30;56.60;;;;;;5053459;28;20536;-63
2021/04/23 01:02:06;;;;;;;9.00;2.80;;;4.30;56.50;;;;;;5048549;28;20036;-63
2021/04/23 01:04:37;;;;;;;6.65;3.17;;;4.30;56.90;;;;;;5051339;28;20444;-63
2021/04/23 01:07:09;;;;;;;7.18;2.90;;;4.20;57.70;;;;;;5056368;28;20040;-62
2021/04/23 01:09:39;;;;;;;3.63;2.45;;;4.20;57.10;;;;;;5063960;28;20035;-62
2021/04/23 01:12:08;;;;;;;4.55;2.38;;;4.20;56.90;;;;;;5057484;28;20037;-63
2021/04/23 01:14:36;;;;;;;5.00;2.85;;;4.10;57.00;;;;;;5063725;28;20039;-63
2021/04/23 01:17:07;;;;;;;7.75;2.65;;;4.10;57.10;;;;;;5064402;28;20037;-63
2021/04/23 01:19:38;;;;;;;4.45;2.35;;;4.10;57.00;;;;;;5064076;28;20056;-63
2021/04/23 01:22:06;;;;;;;4.85;2.58;;;4.10;57.20;;;;;;5062842;28;20037;-62
2021/04/23 01:24:36;;;;;;;43.60;10.93;;;4.10;57.00;;;;;;5062685;28;20582;-62
2021/04/23 01:27:02;;;;;;;58.47;14.10;;;4.00;57.10;;;;;;5062776;28;20448;-62
2021/04/23 01:29:32;;;;;;;113.10;25.73;;;4.00;57.00;;;;;;5063549;28;20039;-63
2021/04/23 01:31:58;;;;;;;83.78;20.00;;;4.00;57.00;;;;;;5052011;28;20033;-62
2021/04/23 01:34:35;;;;;;;66.60;14.93;;;4.00;57.00;;;;;;5055554;28;20404;-63
2021/04/23 01:37:04;;;;;;;27.77;8.55;;;3.90;57.50;;;;;;5051544;28;20067;-63
2021/04/23 01:39:35;;;;;;;17.35;6.18;;;3.90;57.10;;;;;;5061443;28;20054;-62
2021/04/23 01:42:06;;;;;;;9.55;4.05;;;3.90;57.20;;;;;;5062748;28;20072;-63
2021/04/23 01:44:35;;;;;;;4.88;3.10;;;3.80;57.30;;;;;;5064425;28;20035;-62
2021/04/23 01:47:06;;;;;;;7.35;3.25;;;3.80;57.30;;;;;;5056059;28;20041;-63
2021/04/23 01:49:37;;;;;;;5.40;2.95;;;3.70;57.40;;;;;;5049919;28;20102;-63
2021/04/23 01:52:15;;;;;;;4.88;2.70;;;3.70;57.50;;;;;;5072170;28;20037;-62
2021/04/23 01:54:48;;;;;;;5.75;2.92;;;3.70;57.70;;;;;;5063777;28;20127;-63
2021/04/23 01:57:20;;;;;;;7.75;3.17;;;3.70;57.60;;;;;;5068140;28;20497;-63
2021/04/23 01:59:47;;;;;;;6.78;3.20;;;3.70;57.80;;;;;;5066645;28;20041;-63
2021/04/23 02:02:18;;;;;;;4.93;2.85;;;3.70;57.70;;;;;;5062009;28;20580;-63
2021/04/23 02:04:47;;;;;;;6.00;2.92;;;3.70;57.80;;;;;;5065463;28;20045;-63
2021/04/23 02:07:16;;;;;;;7.05;3.00;;;3.70;57.90;;;;;;5053857;28;20037;-62
2021/04/23 02:09:49;;;;;;;7.72;2.80;;;3.60;58.00;;;;;;5059913;28;20040;-62
2021/04/23 02:12:20;;;;;;;6.38;3.20;;;3.60;58.00;;;;;;5059435;28;20037;-63
2021/04/23 02:14:50;;;;;;;6.20;3.17;;;3.60;58.10;;;;;;5060333;28;20060;-62
2021/04/23 02:17:19;;;;;;;5.88;2.72;;;3.60;58.00;;;;;;5055841;28;20033;-63
2021/04/23 02:19:49;;;;;;;4.93;2.67;;;3.50;57.80;;;;;;5062940;28;20050;-63
2021/04/23 02:22:17;;;;;;;8.32;3.17;;;3.50;57.80;;;;;;5056227;28;20037;-62
2021/04/23 02:24:43;;;;;;;5.18;2.97;;;3.50;57.80;;;;;;5078825;28;20064;-64
2021/04/23 02:27:13;;;;;;;7.03;2.97;;;3.50;57.90;;;;;;5060183;28;20071;-63
2021/04/23 02:29:38;;;;;;;5.40;3.03;;;3.50;58.10;;;;;;5061805;28;20025;-64
2021/04/23 02:32:07;;;;;;;12.63;3.33;;;3.40;58.00;;;;;;5057976;28;20032;-63
2021/04/23 02:34:33;;;;;;;6.55;2.95;;;3.40;58.30;;;;;;5063517;28;20379;-63
2021/04/23 02:36:58;;;;;;;12.40;3.38;;;3.30;58.10;;;;;;5057365;28;20039;-63
2021/04/23 02:39:29;;;;;;;5.05;2.78;;;3.30;58.30;;;;;;5062907;28;20031;-62
2021/04/23 02:41:57;;;;;;;9.43;3.40;;;3.30;58.40;;;;;;5063136;28;20029;-63
2021/04/23 02:44:25;;;;;;;8.75;3.67;;;3.20;58.20;;;;;;5068251;28;20032;-64
2021/04/23 02:46:56;;;;;;;7.20;3.40;;;3.20;58.20;;;;;;5066136;28;20037;-62
2021/04/23 02:49:24;;;;;;;6.10;3.30;;;3.10;58.30;;;;;;5066664;28;20083;-62
2021/04/23 02:51:50;;;;;;;6.28;3.00;;;3.10;58.50;;;;;;5058261;28;20033;-61
2021/04/23 02:54:21;;;;;;;5.22;3.13;;;3.10;58.50;;;;;;5067757;28;20067;-63
2021/04/23 02:56:50;;;;;;;8.20;3.28;;;3.10;58.80;;;;;;5066319;28;20111;-64
2021/04/23 02:59:19;;;;;;;7.18;3.22;;;3.10;58.70;;;;;;5066193;28;20035;-63
2021/04/23 03:01:51;;;;;;;5.85;3.08;;;3.10;58.60;;;;;;5060406;28;20829;-62
2021/04/23 03:04:16;;;;;;;6.55;3.33;;;3.10;58.80;;;;;;5056163;28;20774;-63
2021/04/23 03:06:47;;;;;;;6.63;3.00;;;3.10;58.60;;;;;;5060466;28;20037;-63
2021/04/23 03:09:19;;;;;;;4.47;2.88;;;3.10;58.70;;;;;;5058237;28;20033;-63
2021/04/23 03:11:48;;;;;;;6.53;3.15;;;3.10;58.70;;;;;;5053669;28;20052;-62
2021/04/23 03:14:13;;;;;;;7.75;3.00;;;3.10;58.70;;;;;;5059577;28;20043;-64
2021/04/23 03:16:44;;;;;;;6.43;2.67;;;3.10;58.70;;;;;;5062694;28;20028;-64
2021/04/23 03:19:16;;;;;;;6.75;3.00;;;3.10;59.00;;;;;;5061161;28;20119;-62
2021/04/23 03:21:47;;;;;;;6.35;2.90;;;3.00;59.00;;;;;;5062122;28;20512;-62
2021/04/23 03:24:20;;;;;;;5.05;3.05;;;3.00;58.90;;;;;;5066209;28;20029;-62
2021/04/23 03:26:49;;;;;;;8.43;3.30;;;2.90;58.90;;;;;;5065088;28;20112;-63
2021/04/23 03:29:18;;;;;;;5.63;3.15;;;2.90;58.90;;;;;;5062352;28;20391;-63
2021/04/23 03:31:48;;;;;;;7.20;3.47;;;2.90;59.10;;;;;;5055309;28;20436;-63
2021/04/23 03:34:19;;;;;;;7.25;3.20;;;2.90;59.10;;;;;;5063208;28;20032;-62
2021/04/23 03:36:49;;;;;;;8.45;3.55;;;2.90;59.30;;;;;;5059431;28;20111;-62
2021/04/23 03:39:20;;;;;;;6.70;3.85;;;2.90;59.10;;;;;;5063885;28;20029;-63
2021/04/23 03:41:50;;;;;;;12.82;4.20;;;2.90;59.30;;;;;;5067396;28;20025;-62
2021/04/23 03:44:20;;;;;;;7.90;3.67;;;2.80;59.30;;;;;;5059197;28;20074;-62
2021/04/23 03:46:50;;;;;;;5.72;3.58;;;2.80;59.30;;;;;;5053650;28;20139;-63
2021/04/23 03:49:18;;;;;;;7.45;3.65;;;2.80;59.50;;;;;;5055039;28;20677;-63
2021/04/23 03:51:46;;;;;;;8.60;3.78;;;2.60;59.40;;;;;;5054295;28;20486;-62
2021/04/23 03:54:12;;;;;;;8.00;3.97;;;2.60;59.40;;;;;;5063567;28;20041;-63
2021/04/23 03:56:37;;;;;;;8.85;3.65;;;2.60;59.40;;;;;;5063411;28;20031;-63
2021/04/23 03:59:05;;;;;;;8.20;3.50;;;2.60;59.50;;;;;;5058131;28;20032;-61
2021/04/23 04:01:35;;;;;;;7.65;3.33;;;2.60;59.70;;;;;;5056022;28;20131;-62
2021/04/23 04:04:08;;;;;;;8.48;3.20;;;2.60;59.60;;;;;;5056761;28;20766;-64
2021/04/23 04:06:36;;;;;;;12.63;3.45;;;2.60;59.80;;;;;;5055288;28;20036;-62
2021/04/23 04:09:09;;;;;;;9.45;3.72;;;2.60;59.70;;;;;;5058155;28;20041;-62
2021/04/23 04:11:39;;;;;;;7.35;3.45;;;2.50;59.90;;;;;;5057598;28;20032;-62
2021/04/23 04:14:09;;;;;;;8.95;4.03;;;2.50;60.90;;;;;;5054143;28;20673;-62
2021/04/23 04:16:37;;;;;;;7.35;3.95;;;2.50;60.20;;;;;;5053449;28;20083;-62
2021/04/23 04:19:08;;;;;;;6.03;3.58;;;2.50;60.20;;;;;;5054819;28;20029;-62
2021/04/23 04:21:38;;;;;;;9.13;3.80;;;2.50;60.80;;;;;;5059737;28;20029;-62
2021/04/23 04:24:04;;;;;;;10.18;3.92;;;2.40;60.30;;;;;;5061341;28;20036;-61
2021/04/23 04:26:35;;;;;;;7.85;3.47;;;2.40;60.20;;;;;;5057818;28;20425;-62
2021/04/23 04:29:00;;;;;;;7.20;3.83;;;2.40;60.40;;;;;;5060735;28;20537;-63
2021/04/23 04:31:30;;;;;;;9.75;3.88;;;2.40;60.20;;;;;;5052417;28;20044;-62
2021/04/23 04:33:58;;;;;;;9.85;3.75;;;2.50;60.30;;;;;;5052636;28;20036;-63
2021/04/23 04:36:26;;;;;;;7.75;4.30;;;2.50;60.20;;;;;;5059281;28;20445;-63
2021/04/23 04:38:56;;;;;;;8.43;3.67;;;2.60;60.50;;;;;;5064705;28;20459;-64
2021/04/23 04:41:24;;;;;;;7.63;3.63;;;2.60;60.30;;;;;;5066771;28;20738;-61
2021/04/23 04:43:54;;;;;;;11.32;4.55;;;2.70;60.20;;;;;;5060962;28;20116;-65
2021/04/23 04:46:22;;;;;;;8.57;3.30;;;2.70;60.40;;;;;;5061021;28;20407;-64
2021/04/23 04:48:52;;;;;;;6.88;3.25;;;2.70;60.00;;;;;;5065001;28;20151;-64
2021/04/23 04:51:20;;;;;;;6.90;3.88;;;2.70;59.90;;;;;;5064967;28;20056;-61
2021/04/23 04:53:51;;;;;;;9.57;3.85;;;2.80;60.20;;;;;;5057716;28;20051;-63
2021/04/23 04:56:19;;;;;;;7.68;3.63;;;2.80;60.30;;;;;;5066023;28;20045;-64
2021/04/23 04:58:49;;;;;;;8.90;3.65;;;2.80;60.40;;;;;;5064386;28;20413;-63
2021/04/23 05:01:20;;;;;;;12.60;4.00;;;2.80;60.20;;;;;;5081358;28;20112;-63
2021/04/23 05:03:50;;;;;;;12.90;3.85;;;2.80;60.30;;;;;;5061130;28;20060;-65
2021/04/23 05:06:18;;;;;;;8.88;3.88;;;2.80;60.40;;;;;;5054956;28;20127;-62
2021/04/23 05:08:43;;;;;;;7.63;3.45;;;2.80;60.40;;;;;;5064722;28;20497;-60
2021/04/23 05:11:14;;;;;;;13.18;4.10;;;2.80;60.40;;;;;;5060120;28;20059;-63
2021/04/23 05:13:42;;;;;;;7.35;3.22;;;2.80;60.50;;;;;;5064658;28;20512;-63
2021/04/23 05:16:07;;;;;;;14.52;4.22;;;2.80;60.50;;;;;;5064881;28;20033;-62
2021/04/23 05:18:33;;;;;;;12.32;4.95;;;2.80;60.40;;;;;;5064571;28;20024;-63
2021/04/23 05:20:58;;;;;;;18.48;4.93;;;2.80;60.30;;;;;;5065920;28;20030;-63
2021/04/23 05:23:24;;;;;;;11.38;4.20;;;2.90;60.40;;;;;;5063182;28;20089;-60
2021/04/23 05:25:50;;;;;;;15.52;4.90;;;2.90;60.60;;;;;;5064165;28;20041;-63
2021/04/23 05:28:16;;;;;;;12.10;4.50;;;3.00;60.70;;;;;;5064908;28;20033;-62
2021/04/23 05:30:44;;;;;;;12.13;5.07;;;3.10;60.80;;;;;;5063998;28;22447;-62
2021/04/23 05:33:12;;;;;;;12.65;5.50;;;3.10;60.80;;;;;;5067547;28;20037;-63
2021/04/23 05:35:41;;;;;;;14.15;4.57;;;3.20;60.90;;;;;;5066743;28;20032;-62
2021/04/23 05:38:09;;;;;;;14.00;5.10;;;3.20;61.10;;;;;;5069105;28;20370;-63
2021/04/23 05:40:40;;;;;;;18.15;4.95;;;3.20;61.10;;;;;;5068132;28;20048;-63
2021/04/23 05:43:09;;;;;;;19.42;5.15;;;3.30;62.00;;;;;;5059432;28;20029;-61
2021/04/23 05:45:40;;;;;;;23.48;5.78;;;3.40;61.40;;;;;;5068163;28;20028;-62
2021/04/23 05:48:09;;;;;;;27.58;5.10;;;3.40;61.40;;;;;;5061857;28;20043;-60
2021/04/23 05:50:36;;;;;;;23.33;4.60;;;3.50;61.30;;;;;;5060176;28;20033;-63
2021/04/23 05:53:09;;;;;;;21.45;5.15;;;3.60;61.30;;;;;;5067220;28;20413;-63
2021/04/23 05:55:40;;;;;;;20.90;4.68;;;3.70;61.40;;;;;;5069026;28;20051;-63
2021/04/23 05:58:11;;;;;;;16.38;5.07;;;3.80;61.40;;;;;;5067531;28;20519;-63
2021/04/23 06:00:42;;;;;;;13.73;5.15;;;3.90;61.30;;;;;;5068238;28;20028;-63
2021/04/23 06:03:11;;;;;;;15.93;4.18;;;4.00;61.40;;;;;;5068108;28;20025;-62
2021/04/23 06:05:41;;;;;;;9.18;3.67;;;4.10;61.10;;;;;;5069098;28;20044;-62
2021/04/23 06:08:11;;;;;;;9.15;4.10;;;4.20;60.90;;;;;;5068550;28;20032;-62
2021/04/23 06:10:40;;;;;;;12.32;3.67;;;4.30;60.70;;;;;;5064145;28;20028;-63
2021/04/23 06:13:09;;;;;;;10.40;3.60;;;4.40;60.40;;;;;;5068497;28;20040;-63
2021/04/23 06:15:41;;;;;;;16.33;4.47;;;4.50;60.30;;;;;;5066052;28;20051;-62
2021/04/23 06:18:10;;;;;;;14.63;3.90;;;4.60;60.20;;;;;;5083789;28;20037;-62
2021/04/23 06:20:41;;;;;;;12.40;4.07;;;4.70;59.90;;;;;;5066600;28;20029;-62
2021/04/23 06:23:10;;;;;;;10.75;3.90;;;4.80;59.70;;;;;;5068053;28;20075;-62
2021/04/23 06:25:38;;;;;;;12.43;3.63;;;4.90;59.60;;;;;;5067062;28;20029;-61
2021/04/23 06:28:07;;;;;;;13.77;4.15;;;5.00;60.30;;;;;;5067370;28;20044;-63
2021/04/23 06:30:38;;;;;;;16.98;4.10;;;5.20;59.60;;;;;;5067062;28;20032;-63
2021/04/23 06:33:16;;;;;;;13.65;4.25;;;5.30;59.60;;;;;;5066928;28;20049;-63
2021/04/23 06:35:47;;;;;;;11.90;4.15;;;5.40;59.70;;;;;;5067391;28;20048;-63
2021/04/23 06:38:16;;;;;;;12.68;4.47;;;5.50;59.50;;;;;;5062181;28;20020;-62
2021/04/23 06:40:43;;;;;;;10.88;4.60;;;5.60;59.20;;;;;;5062686;28;20033;-62
2021/04/23 06:43:09;;;;;;;10.63;4.15;;;5.70;59.10;;;;;;5063285;28;20093;-63
2021/04/23 06:45:37;;;;;;;14.57;4.32;;;5.90;58.70;;;;;;5068619;28;20036;-63
2021/04/23 06:48:04;;;;;;;12.15;4.65;;;5.90;58.60;;;;;;5067303;28;20494;-62
2021/04/23 06:50:32;;;;;;;13.48;4.88;;;6.00;58.50;;;;;;5065212;28;20032;-63
2021/04/23 06:53:02;;;;;;;9.27;3.85;;;6.20;58.50;;;;;;5083456;28;20036;-63
2021/04/23 06:55:33;;;;;;;9.98;4.10;;;6.30;58.30;;;;;;5068254;28;20029;-63
2021/04/23 06:58:03;;;;;;;6.45;3.53;;;6.40;58.30;;;;;;5068350;28;20050;-63
2021/04/23 07:00:36;;;;;;;9.85;4.15;;;6.50;58.00;;;;;;5067520;28;20032;-63
2021/04/23 07:03:07;;;;;;;10.23;4.55;;;6.70;58.00;;;;;;5052669;28;20033;-63
2021/04/23 07:05:33;;;;;;;8.73;3.85;;;6.80;57.90;;;;;;5067223;28;20028;-63
2021/04/23 07:08:04;;;;;;;12.02;3.88;;;6.90;57.80;;;;;;5081261;28;20021;-63
2021/04/23 07:10:34;;;;;;;9.77;3.88;;;7.00;57.80;;;;;;5059379;28;20021;-63
2021/04/23 07:13:04;;;;;;;11.10;4.28;;;7.10;57.70;;;;;;5066900;28;20229;-63
2021/04/23 07:15:33;;;;;;;11.75;4.32;;;7.20;57.40;;;;;;5065720;28;20033;-63
2021/04/23 07:18:04;;;;;;;9.90;4.30;;;7.30;57.30;;;;;;5066994;28;20493;-62
2021/04/23 07:20:33;;;;;;;11.93;3.92;;;7.50;57.40;;;;;;5067250;28;20028;-63
2021/04/23 07:22:59;;;;;;;10.60;3.83;;;7.50;57.10;;;;;;5065743;28;20056;-63
2021/04/23 07:25:27;;;;;;;11.98;4.18;;;7.60;56.80;;;;;;5067214;28;20444;-63
2021/04/23 07:27:56;;;;;;;11.90;4.53;;;7.70;56.60;;;;;;5065158;28;20033;-62
2021/04/23 07:30:25;;;;;;;10.75;4.07;;;7.80;56.60;;;;;;5066452;28;20025;-64
2021/04/23 07:32:51;;;;;;;13.52;4.10;;;7.90;56.40;;;;;;5065983;28;20044;-62
2021/04/23 07:35:19;;;;;;;12.60;4.53;;;8.00;56.10;;;;;;5066543;28;20470;-63
2021/04/23 07:37:45;;;;;;;13.57;4.72;;;8.10;55.70;;;;;;5059562;28;20063;-63
2021/04/23 07:40:16;;;;;;;14.10;4.72;;;8.20;55.70;;;;;;5065302;28;20061;-63
2021/04/23 07:42:47;;;;;;;12.73;4.63;;;8.30;55.40;;;;;;5066396;28;20040;-63
2021/04/23 07:45:18;;;;;;;9.88;4.30;;;8.40;55.50;;;;;;5065196;28;20037;-63
2021/04/23 07:47:50;;;;;;;8.65;3.42;;;8.50;55.40;;;;;;5065340;28;20505;-64
2021/04/23 07:50:19;;;;;;;9.68;3.88;;;8.60;55.20;;;;;;5067494;28;20024;-63
2021/04/23 07:52:45;;;;;;;11.93;4.28;;;8.70;55.10;;;;;;5063892;28;20366;-63
2021/04/23 07:55:16;;;;;;;15.40;4.28;;;8.90;55.00;;;;;;5058269;28;20071;-62
2021/04/23 07:57:42;;;;;;;13.52;3.90;;;8.90;54.60;;;;;;5066204;28;20037;-63
2021/04/23 08:00:10;;;;;;;12.27;4.28;;;9.10;54.50;;;;;;5067553;28;20494;-61
2021/04/23 08:02:36;;;;;;;10.70;4.38;;;9.20;54.40;;;;;;5078682;28;20060;-63
2021/04/23 08:05:04;;;;;;;10.40;3.75;;;9.30;54.20;;;;;;5061078;28;20032;-63
2021/04/23 08:07:32;;;;;;;14.65;4.00;;;9.40;54.20;;;;;;5066751;28;20052;-63
2021/04/23 08:09:58;;;;;;;12.00;4.07;;;9.50;54.30;;;;;;5056718;28;20527;-62
2021/04/23 08:12:28;;;;;;;14.38;3.97;;;9.60;53.90;;;;;;5061852;28;20040;-63
2021/04/23 08:14:53;;;;;;;13.80;3.80;;;9.70;54.00;;;;;;5066256;28;20036;-63
2021/04/23 08:17:21;;;;;;;9.95;3.90;;;9.90;54.60;;;;;;5065180;28;20037;-63
2021/04/23 08:19:50;;;;;;;11.50;3.25;;;9.90;53.40;;;;;;5065868;28;20033;-62
2021/04/23 08:22:22;;;;;;;9.23;3.42;;;10.10;53.00;;;;;;5063607;28;20032;-63
2021/04/23 08:24:53;;;;;;;7.38;2.90;;;10.20;53.00;;;;;;5066079;28;20058;-63
2021/04/23 08:27:25;;;;;;;7.80;3.40;;;10.30;52.90;;;;;;5065662;28;20040;-63
2021/04/23 08:29:56;;;;;;;8.07;2.95;;;10.40;52.60;;;;;;5065328;28;20047;-63
2021/04/23 08:32:28;;;;;;;12.02;3.85;;;10.60;52.50;;;;;;5064770;28;20492;-63
2021/04/23 08:34:59;;;;;;;11.65;3.58;;;10.70;51.80;;;;;;5064061;28;20040;-63
2021/04/23 08:37:27;;;;;;;11.23;3.53;;;10.80;51.80;;;;;;5065945;28;20040;-63
2021/04/23 08:39:58;;;;;;;11.52;3.95;;;10.90;51.70;;;;;;5058323;28;20032;-62
2021/04/23 08:42:28;;;;;;;14.38;3.25;;;11.00;51.20;;;;;;5065021;28;20103;-63
2021/04/23 08:44:59;;;;;;;8.13;2.83;;;11.10;50.60;;;;;;5065281;28;20040;-61
2021/04/23 08:47:25;;;;;;;8.77;2.70;;;11.20;50.70;;;;;;5064495;28;20036;-64
2021/04/23 08:49:51;;;;;;;6.93;2.80;;;11.30;50.40;;;;;;5064569;28;20074;-63
2021/04/23 08:52:20;;;;;;;9.45;2.92;;;11.40;50.60;;;;;;5063477;28;20111;-62
2021/04/23 08:54:50;;;;;;;5.43;2.88;;;11.50;49.80;;;;;;5063546;28;20040;-62
2021/04/23 08:57:21;;;;;;;7.85;2.80;;;11.60;49.50;;;;;;5062070;28;20063;-63
2021/04/23 08:59:49;;;;;;;9.32;2.58;;;11.70;49.70;;;;;;5059700;28;20033;-63
2021/04/23 09:02:17;;;;;;;9.52;3.08;;;11.80;49.40;;;;;;5063507;28;20025;-63
2021/04/23 09:04:45;;;;;;;10.38;2.55;;;11.90;48.10;;;;;;5064305;28;20101;-62
2021/04/23 09:07:11;;;;;;;7.07;2.60;;;12.10;48.40;;;;;;5054308;28;20028;-63
2021/04/23 09:09:43;;;;;;;9.45;3.00;;;12.10;47.50;;;;;;5065227;28;20040;-62
2021/04/23 09:12:20;;;;;;;6.95;2.90;;;12.20;46.90;;;;;;5058470;28;21465;-63
2021/04/23 09:14:49;;;;;;;12.63;3.30;;;12.30;47.10;;;;;;5063193;28;20424;-63
2021/04/23 09:17:40;;;;;;;12.75;4.45;;;12.40;46.90;;;;;;5065458;28;20409;-63
2021/04/23 09:20:06;;;;;;;6.80;3.13;;;12.50;46.40;;;;;;5064667;28;20532;-63
2021/04/23 09:22:39;;;;;;;7.60;3.00;;;12.60;47.20;;;;;;5063690;28;20097;-64
2021/04/23 09:25:13;;;;;;;6.72;2.97;;;12.70;46.80;;;;;;5065463;28;20040;-62
2021/04/23 09:27:42;;;;;;;8.13;2.90;;;12.70;45.30;;;;;;5064021;28;20437;-63
2021/04/23 09:30:15;;;;;;;9.35;2.80;;;12.80;46.10;;;;;;5063522;28;20051;-64
2021/04/23 09:32:43;;;;;;;8.07;3.08;;;12.90;46.30;;;;;;5063586;28;20510;-63
2021/04/23 09:35:17;;;;;;;5.85;3.25;;;13.00;45.70;;;;;;5064499;28;20067;-64
2021/04/23 09:37:52;;;;;;;7.97;3.25;;;13.10;44.50;;;;;;5064394;28;20064;-63
2021/04/23 09:40:26;;;;;;;7.28;2.90;;;13.10;43.50;;;;;;5064227;28;20527;-64
2021/04/23 09:42:57;;;;;;;6.25;2.95;;;13.20;44.10;;;;;;5064012;28;20033;-64
2021/04/23 09:45:44;;;;;;;5.70;2.70;;;13.30;44.20;;;;;;5062606;28;20033;-64
2021/04/23 09:48:21;;;;;;;7.60;3.00;;;13.40;44.40;;;;;;5051907;28;20570;-64
2021/04/23 09:50:55;;;;;;;9.57;3.15;;;13.40;43.80;;;;;;5064644;28;20116;-64
2021/04/23 09:53:32;;;;;;;7.05;3.03;;;13.60;44.00;;;;;;5065142;28;20075;-64
2021/04/23 09:56:03;;;;;;;5.75;3.05;;;13.60;44.10;;;;;;5063586;28;20386;-64
2021/04/23 09:58:33;;;;;;;7.05;2.80;;;13.70;44.30;;;;;;5065281;28;20025;-63
2021/04/23 10:01:02;;;;;;;10.07;2.97;;;13.80;44.60;;;;;;5064047;28;20401;-64
2021/04/23 10:03:34;;;;;;;9.73;3.47;;;13.90;43.90;;;;;;5062935;28;20032;-64
2021/04/23 10:06:19;;;;;;;6.32;2.80;;;14.00;43.00;;;;;;5062196;28;20090;-64
2021/04/23 10:08:50;;;;;;;;;;;14.10;41.60;;;;;;5066282;28;20033;-63
2021/04/23 10:11:15;;;;;;;13.60;3.50;;;14.20;40.20;;;;;;5060053;28;19916;-63
2021/04/23 10:13:43;;;;;;;5.82;3.15;;;14.20;41.80;;;;;;5065899;28;20352;-63
2021/04/23 10:16:09;;;;;;;5.25;2.40;;;14.20;42.60;;;;;;5064861;28;20025;-64
2021/04/23 10:18:36;;;;;;;7.45;3.13;;;14.20;43.00;;;;;;5067150;28;20029;-62
2021/04/23 10:21:07;;;;;;;5.47;3.05;;;14.30;43.20;;;;;;5068626;28;20550;-63
2021/04/23 10:23:37;;;;;;;6.95;3.05;;;14.30;43.10;;;;;;5068623;28;20107;-63
2021/04/23 10:26:04;;;;;;;7.20;2.97;;;14.40;41.40;;;;;;5069268;28;20032;-64
2021/04/23 10:28:29;;;;;;;5.68;2.85;;;14.40;41.90;;;;;;5067226;28;20479;-64
2021/04/23 10:31:03;;;;;;;8.50;3.30;;;14.40;42.20;;;;;;5069009;28;20036;-63
2021/04/23 10:33:33;;;;;;;5.65;2.65;;;14.50;40.30;;;;;;5067489;28;20064;-62
2021/04/23 10:36:01;;;;;;;6.93;3.05;;;14.50;41.10;;;;;;5066807;28;20047;-63
2021/04/23 10:38:31;;;;;;;5.80;2.85;;;14.60;40.90;;;;;;5067795;28;20032;-63
2021/04/23 10:41:01;;;;;;;8.10;3.22;;;14.60;41.50;;;;;;5067165;28;20036;-63
2021/04/23 10:43:32;;;;;;;8.23;3.10;;;14.60;40.00;;;;;;5068436;28;20083;-63
2021/04/23 10:46:15;;;;;;;6.97;2.75;;;14.60;41.00;;;;;;5067810;28;20045;-63
2021/04/23 10:48:49;;;;;;;4.53;2.65;;;14.70;40.90;;;;;;5066887;28;20460;-62
2021/04/23 10:51:23;;;;;;;7.35;3.10;;;14.70;41.10;;;;;;5066800;28;20043;-63
2021/04/23 10:53:54;;;;;;;8.40;3.10;;;14.80;41.00;;;;;;5067841;28;20032;-62
2021/04/23 10:56:32;;;;;;;6.72;2.85;;;14.90;41.40;;;;;;5065130;28;20025;-61
2021/04/23 10:59:04;;;;;;;8.98;3.55;;;14.90;40.00;;;;;;5064611;28;20029;-62
2021/04/23 11:01:41;;;;;;;9.35;3.30;;;15.00;39.80;;;;;;5067678;28;20021;-61
2021/04/23 11:04:17;;;;;;;6.57;3.22;;;14.90;38.20;;;;;;5065710;28;20039;-62
2021/04/23 11:07:05;;;;;;;6.32;2.85;;;15.00;39.10;;;;;;5067085;28;20032;-62
2021/04/23 11:09:33;;;;;;;7.18;2.70;;;15.00;39.70;;;;;;5067754;28;20417;-62
2021/04/23 11:12:10;;;;;;;6.05;3.10;;;15.00;40.10;;;;;;5061726;28;20086;-62
2021/04/23 11:14:39;;;;;;;5.95;2.70;;;15.10;39.50;;;;;;5067158;28;20072;-62
2021/04/23 11:17:20;;;;;;;5.57;2.95;;;15.10;40.20;;;;;;5067235;28;20025;-62
2021/04/23 11:19:53;;;;;;;9.27;3.58;;;15.20;39.50;;;;;;5066415;28;20042;-62
2021/04/23 11:22:29;;;;;;;9.05;3.22;;;15.30;38.20;;;;;;5066277;28;20024;-63
2021/04/23 11:25:06;;;;;;;5.95;2.70;;;15.30;38.70;;;;;;5065481;28;20382;-62
2021/04/23 11:27:32;;;;;;;6.97;2.72;;;15.30;38.50;;;;;;5066848;28;20032;-62
2021/04/23 11:29:57;;;;;;;7.75;3.10;;;15.40;39.70;;;;;;5063940;28;20032;-62
2021/04/23 11:32:28;;;;;;;9.02;3.63;;;15.40;38.00;;;;;;5064956;28;20039;-63
2021/04/23 11:35:10;;;;;;;7.93;2.90;;;15.40;38.10;;;;;;5066413;28;20059;-60
2021/04/23 11:37:56;;;;;;;7.03;3.45;;;15.40;38.10;;;;;;5063791;28;20492;-63
2021/04/23 11:40:29;;;;;;;7.30;3.35;;;15.40;36.70;;;;;;5065100;28;20056;-61
2021/04/23 11:43:00;;;;;;;6.78;2.60;;;15.40;37.40;;;;;;5065572;28;20032;-63
2021/04/23 11:45:36;;;;;;;6.45;3.00;;;15.50;37.80;;;;;;5067485;28;20052;-62
2021/04/23 11:48:09;;;;;;;6.90;2.65;;;15.50;37.60;;;;;;5065589;28;20033;-61
2021/04/23 11:50:42;;;;;;;5.45;2.63;;;15.50;37.50;;;;;;5065265;28;20029;-62
2021/04/23 11:53:28;;;;;;;6.72;2.53;;;15.50;37.80;;;;;;5063606;28;20041;-62
2021/04/23 11:55:58;;;;;;;5.00;2.17;;;15.60;35.60;;;;;;5064716;28;20497;-63
2021/04/23 11:58:26;;;;;;;5.80;2.85;;;15.60;37.50;;;;;;5056759;28;20055;-63
2021/04/23 12:00:56;;;;;;;4.45;3.03;;;15.70;36.80;;;;;;5065124;28;20040;-63
2021/04/23 12:03:24;;;;;;;6.10;2.47;;;15.70;37.20;;;;;;5065603;28;20040;-62
2021/04/23 12:05:55;;;;;;;6.75;2.60;;;15.70;37.30;;;;;;5065606;28;20057;-62
2021/04/23 12:08:31;;;;;;;6.82;2.40;;;15.80;37.20;;;;;;5064217;28;20043;-62
2021/04/23 12:11:07;;;;;;;5.50;2.58;;;15.80;37.40;;;;;;5063549;28;20037;-62
2021/04/23 12:13:40;;;;;;;4.00;2.50;;;15.90;36.90;;;;;;5066159;28;20044;-63
2021/04/23 12:16:11;;;;;;;4.72;2.30;;;16.00;35.40;;;;;;5066437;28;20112;-62
2021/04/23 12:18:49;;;;;;;3.13;2.17;;;16.00;36.30;;;;;;5063519;28;20119;-63
2021/04/23 12:21:18;;;;;;;5.78;2.50;;;16.10;35.70;;;;;;5066121;28;20029;-62
2021/04/23 12:23:48;;;;;;;5.20;2.40;;;16.10;35.30;;;;;;5064740;28;20128;-61
2021/04/23 12:26:15;;;;;;;3.95;2.28;;;16.20;33.30;;;;;;5063793;28;20032;-63
2021/04/23 12:28:48;;;;;;;7.40;2.10;;;16.20;34.80;;;;;;5057310;28;20093;-63
2021/04/23 12:31:28;;;;;;;3.28;1.70;;;16.20;32.70;;;;;;5057798;28;20067;-62
2021/04/23 12:34:00;;;;;;;4.57;2.10;;;16.20;33.40;;;;;;5065680;28;20047;-62
2021/04/23 12:36:25;;;;;;;4.55;1.90;;;16.20;32.70;;;;;;5066594;28;20158;-62
2021/04/23 12:38:57;;;;;;;5.60;2.47;;;16.20;33.50;;;;;;5066149;28;20051;-62
2021/04/23 12:41:30;;;;;;;3.72;2.45;;;16.20;33.50;;;;;;5066422;28;20028;-60
2021/04/23 12:44:02;;;;;;;5.13;2.60;;;16.20;32.20;;;;;;5063605;28;20036;-62
2021/04/23 12:46:32;;;;;;;4.93;2.65;;;16.20;33.00;;;;;;5062978;28;20040;-62
2021/04/23 12:49:19;;;;;;;6.88;2.60;;;16.20;33.60;;;;;;5065340;28;20086;-62
2021/04/23 12:51:49;;;;;;;8.50;2.50;;;16.20;32.10;;;;;;5065448;28;20029;-63
2021/04/23 12:54:17;;;;;;;7.10;2.60;;;16.20;33.30;;;;;;5063778;28;20110;-63
2021/04/23 12:56:56;;;;;;;5.88;2.53;;;16.20;32.80;;;;;;5062297;28;20039;-63
2021/04/23 12:59:47;;;;;;;3.75;2.15;;;16.20;33.70;;;;;;5064123;28;20048;-62
2021/04/23 13:02:34;;;;;;;4.38;2.38;;;16.20;34.40;;;;;;5062644;28;20059;-63
2021/04/23 13:05:10;;;;;;;5.97;2.40;;;16.30;34.30;;;;;;5065391;28;20016;-63
2021/04/23 13:07:59;;;;;;;6.97;2.60;;;16.40;34.40;;;;;;5063756;28;20519;-64
2021/04/23 13:10:30;;;;;;;6.47;2.97;;;16.50;33.10;;;;;;5061754;28;20396;-63